Pythagoras — C6ZO4 — position and weather

sailwx.info

Track history (hours):
 
Tides and Currents Weather Stations Pressure Air Temp Water Temp Dewpoint Dewpoint Depression Visibility Wind Speed Wind Dir Waves Ship Positions

Pythagoras

Last reported at 2015-May-01 08:04 UTC. Time now 2015-May-06 01:24 UTC.
Position N 49°51' W 003°14'.

Length 190 m; draft 11.4 m.

Type: Cargo ship. MMSI: 311061300.

Date/timePositionNaut miles runAvg speedWind from/ knotsBaromVisibWave heightAir tempDewpointWater temp
2015-May-01 08:04N 49°51' W 003°14'611.4
2015-May-01 07:33N 49°54' W 003°06'6911.2
2015-May-01 01:20N 50°15' W 001°23'1714.2
2015-May-01 00:10N 50°20' W 000°58'1313.7
2015-Apr-30 23:12N 50°23' W 000°38'912.9
2015-Apr-30 22:28N 50°26' W 000°24'1112.0
2015-Apr-30 21:33N 50°30' W 000°08'1111.0
2015-Apr-30 20:32N 50°32' E 000°09'1010.3
2015-Apr-30 19:34N 50°35' E 000°25'10 9.9
2015-Apr-30 18:33N 50°39' E 000°39'1110.8
2015-Apr-30 17:33N 50°46' E 000°53'1211.7
2015-Apr-30 16:33N 50°53' E 001°07'1212.5
2015-Apr-30 15:33N 51°01' E 001°22'1211.7
2015-Apr-30 14:33N 51°09' E 001°36'1010.4
2015-Apr-30 13:34N 51°16' E 001°48'10 9.6
2015-Apr-30 12:33N 51°25' E 001°54'9 9.3
2015-Apr-30 11:33N 51°33' E 002°03'10 9.6
2015-Apr-30 10:34N 51°40' E 002°13'10 9.8
2015-Apr-30 09:32N 51°47' E 002°24'27310.5
2015-Apr-29 07:27N 55°41' E 006°20'1010.9
2015-Apr-29 06:33N 55°49' E 006°30'138 9.6
2015-Apr-28 16:13N 57°35' E 009°13'3010.5
2015-Apr-28 13:19N 57°45' E 010°07'7 9.5
2015-Apr-28 12:34N 57°47' E 010°20'9 9.4
2015-Apr-28 11:33N 57°49' E 010°37'7 7.0
2015-Apr-28 10:33N 57°42' E 010°42'2 2.2
2015-Apr-28 09:30N 57°40' E 010°40'0 0.0
2015-Apr-28 08:33N 57°40' E 010°40'0 0.0
2015-Apr-28 07:30N 57°40' E 010°40'0 0.0
2015-Apr-28 06:33N 57°40' E 010°40'0 0.0
2015-Apr-28 05:27N 57°40' E 010°40'0 0.0
2015-Apr-28 04:21N 57°40' E 010°40'1 1.4
2015-Apr-28 03:33N 57°40' E 010°41'9 9.1
2015-Apr-28 02:32N 57°35' E 010°57'1010.7
2015-Apr-28 01:33N 57°31' E 011°15'1010.0
2015-Apr-28 00:33N 57°24' E 011°28'1110.9
2015-Apr-27 23:33N 57°14' E 011°35'1010.5
2015-Apr-27 22:33N 57°04' E 011°41'1110.6
2015-Apr-27 21:33N 56°54' E 011°48'1010.1
2015-Apr-27 20:33N 56°44' E 011°51'1111.3
2015-Apr-27 19:33N 56°37' E 011°36'10110.1
2015-Apr-27 09:33N 54°58' E 010°57'18 9.1
2015-Apr-27 07:33N 54°41' E 010°48'1110.9
2015-Apr-27 06:33N 54°36' E 011°05'1111.3
2015-Apr-27 05:33N 54°32' E 011°23'1111.1
2015-Apr-27 04:33N 54°28' E 011°41'1110.9
2015-Apr-27 03:33N 54°27' E 011°60'9 9.0
2015-Apr-27 02:33N 54°31' E 012°13'10 9.5
2015-Apr-27 01:31N 54°39' E 012°22'1111.0
2015-Apr-27 00:33N 54°45' E 012°38'1110.8
2015-Apr-26 23:30N 54°50' E 012°55'1011.0
2015-Apr-26 22:33N 54°53' E 013°13'1111.2
2015-Apr-26 21:34N 54°57' E 013°31'1211.5
2015-Apr-26 20:33N 55°01' E 013°50'1111.0
2015-Apr-26 19:33N 55°06' E 014°07'1111.5
2015-Apr-26 18:33N 55°15' E 014°19'1211.5
2015-Apr-26 17:33N 55°24' E 014°32'1111.2
2015-Apr-26 16:33N 55°30' E 014°48'1211.5
2015-Apr-26 15:34N 55°36' E 015°06'1111.2
2015-Apr-26 14:33N 55°42' E 015°23'2310.9
2015-Apr-26 12:29N 55°53' E 015°58'  
Track history (hours):
 
Tides and Currents Weather Stations Pressure Air Temp Water Temp Dewpoint Dewpoint Depression Visibility Wind Speed Wind Dir Waves Ship Positions

Pythagoras

Last reported at 2015-May-01 08:04 UTC. Time now 2015-May-06 01:24 UTC.
Position N 49°51' W 003°14'.

Length 190 m; draft 11.4 m.

Type: Cargo ship. MMSI: 311061300.

Date/timePositionNaut miles runAvg speedWind from/ knotsBaromVisibWave heightAir tempDewpointWater temp
2015-May-01 08:04N 49°51' W 003°14'611.4
2015-May-01 07:33N 49°54' W 003°06'6911.2
2015-May-01 01:20N 50°15' W 001°23'1714.2
2015-May-01 00:10N 50°20' W 000°58'1313.7
2015-Apr-30 23:12N 50°23' W 000°38'912.9
2015-Apr-30 22:28N 50°26' W 000°24'1112.0
2015-Apr-30 21:33N 50°30' W 000°08'1111.0
2015-Apr-30 20:32N 50°32' E 000°09'1010.3
2015-Apr-30 19:34N 50°35' E 000°25'10 9.9
2015-Apr-30 18:33N 50°39' E 000°39'1110.8
2015-Apr-30 17:33N 50°46' E 000°53'1211.7
2015-Apr-30 16:33N 50°53' E 001°07'1212.5
2015-Apr-30 15:33N 51°01' E 001°22'1211.7
2015-Apr-30 14:33N 51°09' E 001°36'1010.4
2015-Apr-30 13:34N 51°16' E 001°48'10 9.6
2015-Apr-30 12:33N 51°25' E 001°54'9 9.3
2015-Apr-30 11:33N 51°33' E 002°03'10 9.6
2015-Apr-30 10:34N 51°40' E 002°13'10 9.8
2015-Apr-30 09:32N 51°47' E 002°24'27310.5
2015-Apr-29 07:27N 55°41' E 006°20'1010.9
2015-Apr-29 06:33N 55°49' E 006°30'138 9.6
2015-Apr-28 16:13N 57°35' E 009°13'3010.5
2015-Apr-28 13:19N 57°45' E 010°07'7 9.5
2015-Apr-28 12:34N 57°47' E 010°20'9 9.4
2015-Apr-28 11:33N 57°49' E 010°37'7 7.0
2015-Apr-28 10:33N 57°42' E 010°42'2 2.2
2015-Apr-28 09:30N 57°40' E 010°40'0 0.0
2015-Apr-28 08:33N 57°40' E 010°40'0 0.0
2015-Apr-28 07:30N 57°40' E 010°40'0 0.0
2015-Apr-28 06:33N 57°40' E 010°40'0 0.0
2015-Apr-28 05:27N 57°40' E 010°40'0 0.0
2015-Apr-28 04:21N 57°40' E 010°40'1 1.4
2015-Apr-28 03:33N 57°40' E 010°41'9 9.1
2015-Apr-28 02:32N 57°35' E 010°57'1010.7
2015-Apr-28 01:33N 57°31' E 011°15'1010.0
2015-Apr-28 00:33N 57°24' E 011°28'1110.9
2015-Apr-27 23:33N 57°14' E 011°35'1010.5
2015-Apr-27 22:33N 57°04' E 011°41'1110.6
2015-Apr-27 21:33N 56°54' E 011°48'1010.1
2015-Apr-27 20:33N 56°44' E 011°51'1111.3
2015-Apr-27 19:33N 56°37' E 011°36'10110.1
2015-Apr-27 09:33N 54°58' E 010°57'18 9.1
2015-Apr-27 07:33N 54°41' E 010°48'1110.9
2015-Apr-27 06:33N 54°36' E 011°05'1111.3
2015-Apr-27 05:33N 54°32' E 011°23'1111.1
2015-Apr-27 04:33N 54°28' E 011°41'1110.9
2015-Apr-27 03:33N 54°27' E 011°60'9 9.0
2015-Apr-27 02:33N 54°31' E 012°13'10 9.5
2015-Apr-27 01:31N 54°39' E 012°22'1111.0
2015-Apr-27 00:33N 54°45' E 012°38'1110.8
2015-Apr-26 23:30N 54°50' E 012°55'1011.0
2015-Apr-26 22:33N 54°53' E 013°13'1111.2
2015-Apr-26 21:34N 54°57' E 013°31'1211.5
2015-Apr-26 20:33N 55°01' E 013°50'1111.0
2015-Apr-26 19:33N 55°06' E 014°07'1111.5
2015-Apr-26 18:33N 55°15' E 014°19'1211.5
2015-Apr-26 17:33N 55°24' E 014°32'1111.2
2015-Apr-26 16:33N 55°30' E 014°48'1211.5
2015-Apr-26 15:34N 55°36' E 015°06'1111.2
2015-Apr-26 14:33N 55°42' E 015°23'2310.9
2015-Apr-26 12:29N 55°53' E 015°58'  

Dump ship's entire track history